createdAt,value
2022-12-23T00:01:20.066Z,99508.58
2022-12-23T00:03:50.817Z,99505.23
2022-12-23T00:06:22.404Z,99495.48
2022-12-23T00:08:58.408Z,99489.56
2022-12-23T00:11:29.956Z,99486.84
2022-12-23T00:14:21.629Z,99486.79
2022-12-23T00:16:52.889Z,99481.66
2022-12-23T00:19:23.360Z,99478.38
2022-12-23T00:21:54.121Z,99479.30
2022-12-23T00:24:24.482Z,99474.74
2022-12-23T00:26:55.310Z,99472.60
2022-12-23T00:29:25.541Z,99469.96
2022-12-23T00:31:55.805Z,99468.09
2022-12-23T00:34:26.286Z,99465.79
2022-12-23T00:36:57.117Z,99465.19
2022-12-23T00:39:45.079Z,99465.14
2022-12-23T00:42:47.600Z,99470.66
2022-12-23T00:45:18.359Z,99464.13
2022-12-23T00:48:07.102Z,99462.74
2022-12-23T00:50:38.994Z,99462.11
2022-12-23T00:53:09.213Z,99463.33
2022-12-23T00:55:39.774Z,99463.48
2022-12-23T00:58:09.999Z,99461.48
2022-12-23T01:00:58.053Z,99459.42
2022-12-23T01:03:46.079Z,99455.70
2022-12-23T01:06:16.745Z,99453.13
2022-12-23T01:08:47.532Z,99448.65
2022-12-23T01:11:17.786Z,99445.25
2022-12-23T01:13:48.020Z,99447.85
2022-12-23T01:16:18.264Z,99440.77
2022-12-23T01:18:48.507Z,99439.84
2022-12-23T01:21:18.731Z,99436.29
2022-12-23T01:23:49.018Z,99436.43
2022-12-23T01:26:19.231Z,99440.66
2022-12-23T01:28:49.704Z,99442.74
2022-12-23T01:31:20.259Z,99440.77
2022-12-23T01:33:50.715Z,99444.79
2022-12-23T01:36:21.873Z,99452.60
2022-12-23T01:38:52.704Z,99453.25
2022-12-23T01:41:43.878Z,99452.70
2022-12-23T01:44:56.918Z,99454.95
2022-12-23T01:47:33.280Z,99451.85
2022-12-23T01:50:08.825Z,99447.73
2022-12-23T01:52:45.703Z,99452.49
2022-12-23T01:55:19.612Z,99447.13
2022-12-23T01:57:52.621Z,99448.28
2022-12-23T02:00:41.462Z,99452.48
2022-12-23T02:03:30.038Z,99450.93
2022-12-23T02:06:21.904Z,99448.44
2022-12-23T02:09:09.707Z,99450.61
2022-12-23T02:11:48.533Z,99453.58
2022-12-23T02:14:50.923Z,99455.48
2022-12-23T02:17:26.481Z,99455.48
2022-12-23T02:20:20.600Z,99455.59
2022-12-23T02:23:14.421Z,99451.45
2022-12-23T02:26:08.169Z,99451.64
2022-12-23T02:29:04.195Z,99454.15
2022-12-23T02:31:43.943Z,99456.31
2022-12-23T02:34:20.380Z,99462.29
2022-12-23T02:37:00.344Z,99464.20
2022-12-23T02:39:38.925Z,99465.49
2022-12-23T02:42:14.837Z,99470.02
2022-12-23T02:44:49.086Z,99475.36
2022-12-23T02:47:23.918Z,99472.14
2022-12-23T02:49:56.913Z,99479.23
2022-12-23T02:52:31.631Z,99481.43
2022-12-23T02:55:06.521Z,99478.39
2022-12-23T02:57:40.129Z,99479.26
2022-12-23T03:00:13.288Z,99478.54
2022-12-23T03:02:45.588Z,99484.32
2022-12-23T03:05:33.598Z,99487.78
2022-12-23T03:08:03.971Z,99486.57
2022-12-23T03:10:45.779Z,99488.48
2022-12-23T03:13:24.154Z,99489.83
2022-12-23T03:16:02.961Z,99485.30
2022-12-23T03:18:40.967Z,99486.41
2022-12-23T03:21:12.874Z,99487.50
2022-12-23T03:23:55.050Z,99488.05
2022-12-23T03:26:31.882Z,99493.47
2022-12-23T03:29:10.619Z,99492.64
2022-12-23T03:31:43.811Z,99490.31
2022-12-23T03:34:20.387Z,99484.02
2022-12-23T03:36:56.515Z,99482.10
2022-12-23T03:39:33.421Z,99491.67
2022-12-23T03:42:12.295Z,99488.36
2022-12-23T03:45:19.191Z,99489.46
2022-12-23T03:47:45.380Z,99492.52
2022-12-23T03:50:18.720Z,99492.47
2022-12-23T03:52:56.508Z,99493.39
2022-12-23T03:55:31.875Z,99492.20
2022-12-23T03:58:08.908Z,99494.36
2022-12-23T04:00:47.034Z,99499.48
2022-12-23T04:03:23.934Z,99499.42
2022-12-23T04:05:59.110Z,99501.25
2022-12-23T04:08:33.746Z,99498.77
2022-12-23T04:11:05.195Z,99496.77
2022-12-23T04:13:35.665Z,99504.28
2022-12-23T04:16:06.911Z,99508.18
2022-12-23T04:18:37.148Z,99507.02
2022-12-23T04:21:08.025Z,99513.23
2022-12-23T04:23:40.268Z,99513.96
2022-12-23T04:26:10.445Z,99521.46
2022-12-23T04:28:40.969Z,99516.65
2022-12-23T04:31:11.160Z,99525.20
2022-12-23T04:33:41.919Z,99524.67
2022-12-23T04:36:12.517Z,99526.94
2022-12-23T04:38:42.862Z,99527.38
2022-12-23T04:41:13.047Z,99528.73
2022-12-23T04:43:47.770Z,99529.70
2022-12-23T04:46:22.087Z,99525.45
2022-12-23T04:48:52.331Z,99527.52
2022-12-23T04:51:23.323Z,99534.09
2022-12-23T04:53:53.542Z,99533.34
2022-12-23T04:56:24.004Z,99531.71
2022-12-23T04:58:54.215Z,99532.89
2022-12-23T05:01:24.496Z,99533.44
2022-12-23T05:03:54.821Z,99532.43
2022-12-23T05:06:25.028Z,99532.10
2022-12-23T05:08:55.541Z,99535.63
2022-12-23T05:11:25.866Z,99542.63
2022-12-23T05:13:56.526Z,99550.21
2022-12-23T05:16:27.095Z,99550.10
2022-12-23T05:18:57.336Z,99550.12
2022-12-23T05:21:27.540Z,99552.55
2022-12-23T05:23:58.151Z,99560.09
2022-12-23T05:26:28.346Z,99568.98
2022-12-23T05:28:58.822Z,99573.84
2022-12-23T05:31:29.349Z,99574.69
2022-12-23T05:34:05.758Z,99577.04
2022-12-23T05:36:37.134Z,99572.55
2022-12-23T05:39:07.538Z,99574.61
2022-12-23T05:41:37.747Z,99580.95
2022-12-23T05:44:08.073Z,99582.30
2022-12-23T05:46:38.469Z,99586.08
2022-12-23T05:49:09.267Z,99587.21
2022-12-23T05:51:39.512Z,99589.64
2022-12-23T05:54:09.737Z,99589.64
2022-12-23T05:56:40.231Z,99596.23
2022-12-23T05:59:11.281Z,99601.65
2022-12-23T06:01:41.561Z,99605.21
2022-12-23T06:04:11.976Z,99603.92
2022-12-23T06:06:42.233Z,99608.20
2022-12-23T06:09:13.001Z,99614.25
2022-12-23T06:11:43.184Z,99622.42
2022-12-23T06:14:14.392Z,99621.28
2022-12-23T06:16:44.858Z,99621.96
2022-12-23T06:19:15.129Z,99626.03
2022-12-23T06:21:45.590Z,99632.89
2022-12-23T06:24:15.913Z,99635.34
2022-12-23T06:26:46.191Z,99632.25
2022-12-23T06:29:16.803Z,99632.92
2022-12-23T06:31:47.368Z,99636.68
2022-12-23T06:34:17.967Z,99641.33
2022-12-23T06:36:48.120Z,99645.56
2022-12-23T06:39:18.876Z,99651.85
2022-12-23T06:41:49.466Z,99652.06
2022-12-23T06:44:20.067Z,99655.92
2022-12-23T06:46:50.840Z,99660.99
2022-12-23T06:49:21.322Z,99660.49
2022-12-23T06:51:52.174Z,99669.24
2022-12-23T06:54:23.151Z,99678.80
2022-12-23T06:56:53.403Z,99684.66
2022-12-23T06:59:24.149Z,99688.45
2022-12-23T07:01:54.535Z,99687.45
2022-12-23T07:04:24.874Z,99693.27
2022-12-23T07:06:55.267Z,99699.52
2022-12-23T07:09:26.231Z,99699.36
2022-12-23T07:11:56.733Z,99705.18
2022-12-23T07:14:27.008Z,99716.54
2022-12-23T07:16:57.409Z,99719.38
2022-12-23T07:19:28.028Z,99715.96
2022-12-23T07:21:58.604Z,99713.27
2022-12-23T07:24:28.800Z,99714.15
2022-12-23T07:26:58.971Z,99723.39
2022-12-23T07:29:29.243Z,99718.75
2022-12-23T07:31:59.491Z,99723.65
2022-12-23T07:34:30.087Z,99725.54
2022-12-23T07:37:00.344Z,99723.70
2022-12-23T07:39:30.703Z,99727.77
2022-12-23T07:42:33.911Z,99731.61
2022-12-23T07:44:51.871Z,99727.75
2022-12-23T07:47:23.510Z,99728.59
2022-12-23T07:49:54.214Z,99728.55
2022-12-23T07:52:24.496Z,99737.52
2022-12-23T07:54:54.918Z,99742.33
2022-12-23T07:57:25.285Z,99742.02
2022-12-23T07:59:55.943Z,99743.24
2022-12-23T08:02:26.739Z,99743.73
2022-12-23T08:04:57.148Z,99755.58
2022-12-23T08:07:27.791Z,99770.94
2022-12-23T08:09:58.023Z,99775.55
2022-12-23T08:12:28.289Z,99780.74
2022-12-23T08:14:58.966Z,99781.15
2022-12-23T08:17:31.126Z,99787.06
2022-12-23T08:20:01.783Z,99784.47
2022-12-23T08:22:33.665Z,99782.34
2022-12-23T08:25:04.226Z,99785.30
2022-12-23T08:27:35.750Z,99789.52
2022-12-23T08:30:07.082Z,99797.64
2022-12-23T08:32:37.908Z,99802.36
2022-12-23T08:35:09.814Z,99807.35
2022-12-23T08:37:40.052Z,99812.46
2022-12-23T08:40:12.771Z,99815.17
2022-12-23T08:42:43.269Z,99811.82
2022-12-23T08:45:13.763Z,99818.41
2022-12-23T08:47:44.274Z,99826.06
2022-12-23T08:50:14.537Z,99831.63
2022-12-23T08:52:44.973Z,99825.81
2022-12-23T08:55:15.678Z,99823.20
2022-12-23T08:57:46.228Z,99828.91
2022-12-23T09:00:17.313Z,99832.34
2022-12-23T09:02:48.251Z,99838.08
2022-12-23T09:05:18.858Z,99846.49
2022-12-23T09:07:49.634Z,99847.70
2022-12-23T09:10:20.041Z,99847.92
2022-12-23T09:12:50.295Z,99853.15
2022-12-23T09:15:20.672Z,99865.55
2022-12-23T09:17:51.327Z,99871.16
2022-12-23T09:20:21.972Z,99870.13
2022-12-23T09:22:52.805Z,99864.63
2022-12-23T09:25:23.115Z,99854.54
2022-12-23T09:27:53.390Z,99839.59
2022-12-23T09:30:23.842Z,99828.37
2022-12-23T09:32:54.231Z,99826.70
2022-12-23T09:35:24.495Z,99828.61
2022-12-23T09:37:55.239Z,99826.60
2022-12-23T09:40:25.656Z,99836.03
2022-12-23T09:43:07.557Z,99836.33
2022-12-23T09:45:54.293Z,99830.95
2022-12-23T09:48:29.403Z,99830.80
2022-12-23T09:51:00.272Z,99833.27
2022-12-23T09:53:41.719Z,99838.88
2022-12-23T09:56:20.799Z,99839.20
2022-12-23T09:58:57.730Z,99842.38
2022-12-23T10:01:42.969Z,99846.91
2022-12-23T10:04:48.173Z,99847.83
2022-12-23T10:07:29.698Z,99854.40
2022-12-23T10:10:04.700Z,99853.50
2022-12-23T10:12:41.767Z,99858.42
2022-12-23T10:15:22.333Z,99854.95
2022-12-23T10:17:57.365Z,99857.69
2022-12-23T10:20:36.353Z,99853.91
2022-12-23T10:23:13.195Z,99853.66
2022-12-23T10:25:50.622Z,99851.68
2022-12-23T10:28:21.814Z,99858.55
2022-12-23T10:31:38.074Z,99854.94
2022-12-23T10:34:05.240Z,99854.66
2022-12-23T10:36:45.884Z,99851.09
2022-12-23T10:39:31.847Z,99848.88
2022-12-23T10:42:13.827Z,99850.19
2022-12-23T10:45:10.046Z,99862.08
2022-12-23T10:47:49.891Z,99866.52
2022-12-23T10:50:48.005Z,99866.27
2022-12-23T10:53:23.723Z,99865.67
2022-12-23T10:55:54.282Z,99867.30
2022-12-23T10:58:26.440Z,99868.73
2022-12-23T11:01:00.016Z,99868.48
2022-12-23T11:03:33.143Z,99865.13
2022-12-23T11:06:07.499Z,99869.05
2022-12-23T11:08:39.915Z,99870.42
2022-12-23T11:11:10.713Z,99872.52
2022-12-23T11:13:43.057Z,99867.73
2022-12-23T11:16:19.869Z,99862.83
2022-12-23T11:18:59.247Z,99852.48
2022-12-23T11:21:30.710Z,99846.23
2022-12-23T11:24:16.291Z,99843.25
2022-12-23T11:26:48.884Z,99846.48
2022-12-23T11:29:25.639Z,99846.15
2022-12-23T11:31:57.357Z,99839.16
2022-12-23T11:34:32.343Z,99841.32
2022-12-23T11:37:07.540Z,99829.55
2022-12-23T11:39:39.503Z,99832.07
2022-12-23T11:42:16.701Z,99830.73
2022-12-23T11:44:51.104Z,99828.50
2022-12-23T11:47:30.756Z,99832.58
2022-12-23T11:50:05.340Z,99827.68
2022-12-23T11:52:36.798Z,99820.09
2022-12-23T11:55:23.926Z,99814.89
2022-12-23T11:57:54.808Z,99810.73
2022-12-23T12:00:30.367Z,99810.56
2022-12-23T12:03:04.109Z,99809.86
2022-12-23T12:05:39.069Z,99811.90
2022-12-23T12:08:14.226Z,99810.59
2022-12-23T12:10:45.607Z,99812.43
2022-12-23T12:13:29.403Z,99811.34
2022-12-23T12:16:11.216Z,99810.63
2022-12-23T12:18:45.121Z,99804.90
2022-12-23T12:21:20.253Z,99802.66
2022-12-23T12:24:08.309Z,99808.15
2022-12-23T12:26:45.054Z,99804.07
2022-12-23T12:29:21.283Z,99796.17
2022-12-23T12:31:54.171Z,99793.02
2022-12-23T12:34:33.310Z,99791.66
2022-12-23T12:37:11.874Z,99770.73
2022-12-23T12:39:48.005Z,99764.32
2022-12-23T12:42:22.064Z,99766.02
2022-12-23T12:45:00.384Z,99761.11
2022-12-23T12:47:53.499Z,99759.25
2022-12-23T12:50:30.237Z,99760.80
2022-12-23T12:53:05.326Z,99748.12
2022-12-23T12:55:42.265Z,99740.51
2022-12-23T12:58:19.563Z,99738.04
2022-12-23T13:01:03.975Z,99734.59
2022-12-23T13:04:08.772Z,99734.58
2022-12-23T13:06:48.633Z,99735.79
2022-12-23T13:09:29.609Z,99727.57
2022-12-23T13:12:06.974Z,99720.27
2022-12-23T13:14:51.640Z,99718.30
2022-12-23T13:17:25.687Z,99715.23
2022-12-23T13:20:01.855Z,99725.55
2022-12-23T13:22:35.262Z,99724.84
2022-12-23T13:25:12.692Z,99721.50
2022-12-23T13:27:50.406Z,99717.83
2022-12-23T13:30:23.828Z,99711.66
2022-12-23T13:33:06.844Z,99709.20
2022-12-23T13:36:04.977Z,99706.23
2022-12-23T13:39:00.903Z,99701.91
2022-12-23T13:41:35.675Z,99696.71
2022-12-23T13:44:10.697Z,99682.89
2022-12-23T13:46:50.697Z,99682.99
2022-12-23T13:49:29.576Z,99695.38
2022-12-23T13:52:06.551Z,99699.66
2022-12-23T13:54:51.334Z,99697.14
2022-12-23T13:57:43.107Z,99697.98
2022-12-23T14:00:31.189Z,99698.20
2022-12-23T14:03:24.120Z,99704.91
2022-12-23T14:05:54.827Z,99706.13
2022-12-23T14:08:41.079Z,99698.67
2022-12-23T14:11:20.437Z,99687.52
2022-12-23T14:13:58.746Z,99684.92
2022-12-23T14:16:38.226Z,99681.33
2022-12-23T14:19:32.609Z,99679.69
2022-12-23T14:22:14.697Z,99677.98
2022-12-23T14:25:24.204Z,99670.36
2022-12-23T14:28:02.786Z,99671.74
2022-12-23T14:30:37.140Z,99673.94
2022-12-23T14:33:24.269Z,99672.44
2022-12-23T14:35:58.705Z,99674.11
2022-12-23T14:38:31.370Z,99671.14
2022-12-23T14:41:36.786Z,99659.59
2022-12-23T14:44:21.522Z,99655.56
2022-12-23T14:46:59.899Z,99652.40
2022-12-23T14:49:47.147Z,99653.59
2022-12-23T14:52:49.465Z,99650.55
2022-12-23T14:55:57.050Z,99651.58
2022-12-23T14:58:37.612Z,99651.10
2022-12-23T15:01:13.896Z,99648.72
2022-12-23T15:03:48.073Z,99642.08
2022-12-23T15:06:24.655Z,99645.64
2022-12-23T15:08:56.822Z,99643.56
2022-12-23T15:11:30.622Z,99642.65
2022-12-23T15:14:03.763Z,99646.13
2022-12-23T15:16:36.745Z,99646.46
2022-12-23T15:19:23.134Z,99647.48
2022-12-23T15:22:13.509Z,99640.21
2022-12-23T15:24:50.099Z,99637.29
2022-12-23T15:27:30.330Z,99638.45
2022-12-23T15:30:01.285Z,99635.27
2022-12-23T15:32:31.822Z,99631.80
2022-12-23T15:35:07.167Z,99627.06
2022-12-23T15:37:37.505Z,99624.17
2022-12-23T15:40:23.581Z,99618.79
2022-12-23T15:42:54.202Z,99617.23
2022-12-23T15:45:42.108Z,99605.77
2022-12-23T15:48:26.312Z,99600.75
2022-12-23T15:51:02.329Z,99601.42
2022-12-23T15:53:36.264Z,99592.69
2022-12-23T15:56:11.320Z,99591.71
2022-12-23T15:58:43.480Z,99587.48
2022-12-23T16:01:18.382Z,99583.60
2022-12-23T16:03:55.531Z,99579.51
2022-12-23T16:06:28.292Z,99579.73
2022-12-23T16:09:03.504Z,99577.27
2022-12-23T16:11:51.984Z,99574.75
2022-12-23T16:14:37.306Z,99567.08
2022-12-23T16:17:23.726Z,99564.98
2022-12-23T16:19:56.143Z,99559.67
2022-12-23T16:22:30.164Z,99558.36
2022-12-23T16:25:12.935Z,99559.31
2022-12-23T16:27:47.104Z,99560.60
2022-12-23T16:30:20.592Z,99560.64
2022-12-23T16:32:56.204Z,99553.13
2022-12-23T16:35:33.672Z,99552.52
2022-12-23T16:38:15.758Z,99551.94
2022-12-23T16:40:47.837Z,99558.52
2022-12-23T16:43:19.195Z,99565.38
2022-12-23T16:45:53.738Z,99563.52
2022-12-23T16:48:30.528Z,99558.01
2022-12-23T16:51:02.280Z,99548.52
2022-12-23T16:53:32.907Z,99548.06
2022-12-23T16:56:03.519Z,99528.86
2022-12-23T16:58:33.767Z,99514.77
2022-12-23T17:01:04.522Z,99516.00
2022-12-23T17:03:35.103Z,99511.74
2022-12-23T17:06:05.953Z,99520.43
2022-12-23T17:08:36.467Z,99516.29
2022-12-23T17:11:07.459Z,99518.14
2022-12-23T17:13:37.655Z,99516.55
2022-12-23T17:16:11.238Z,99519.41
2022-12-23T17:18:41.583Z,99518.15
2022-12-23T17:21:19.285Z,99513.81
2022-12-23T17:23:51.509Z,99511.63
2022-12-23T17:26:21.935Z,99510.79
2022-12-23T17:28:52.855Z,99509.52
2022-12-23T17:31:26.981Z,99511.19
2022-12-23T17:33:58.258Z,99508.14
2022-12-23T17:36:28.755Z,99511.52
2022-12-23T17:38:59.421Z,99501.90
2022-12-23T17:41:32.165Z,99497.38
2022-12-23T17:44:02.804Z,99490.05
2022-12-23T17:46:33.224Z,99488.63
2022-12-23T17:49:03.998Z,99490.16
2022-12-23T17:51:34.515Z,99492.20
2022-12-23T17:54:06.327Z,99487.10
2022-12-23T17:56:36.729Z,99484.80
2022-12-23T17:59:07.896Z,99482.85
2022-12-23T18:01:44.490Z,99473.19
2022-12-23T18:04:18.653Z,99468.87
2022-12-23T18:06:54.199Z,99468.38
2022-12-23T18:15:26.250Z,99465.41
2022-12-23T18:18:19.008Z,99457.64
2022-12-23T18:21:06.212Z,99451.63
2022-12-23T18:23:37.783Z,99445.61
2022-12-23T18:26:08.248Z,99440.85
2022-12-23T18:28:38.612Z,99436.88
2022-12-23T18:31:14.665Z,99429.08
2022-12-23T18:33:45.399Z,99425.45
2022-12-23T18:36:24.085Z,99415.59
2022-12-23T18:38:55.154Z,99409.68
2022-12-23T18:41:26.468Z,99407.98
2022-12-23T18:43:57.601Z,99406.46
2022-12-23T18:46:28.244Z,99404.89
2022-12-23T18:48:58.866Z,99397.06
2022-12-23T18:51:29.203Z,99392.96
2022-12-23T18:53:59.462Z,99395.73
2022-12-23T18:56:30.236Z,99389.40
2022-12-23T18:59:00.508Z,99386.02
2022-12-23T19:01:30.833Z,99383.95
2022-12-23T19:04:01.360Z,99388.66
2022-12-23T19:06:31.667Z,99386.45
2022-12-23T19:09:03.752Z,99382.01
2022-12-23T19:11:34.720Z,99378.25
2022-12-23T19:14:05.778Z,99371.81
2022-12-23T19:16:36.993Z,99376.85
2022-12-23T19:19:09.119Z,99372.62
2022-12-23T19:21:39.427Z,99374.85
2022-12-23T19:24:09.885Z,99375.77
2022-12-23T19:26:40.471Z,99373.90
2022-12-23T19:29:13.229Z,99374.86
2022-12-23T19:31:44.303Z,99381.98
2022-12-23T19:34:15.588Z,99385.76
2022-12-23T19:36:47.233Z,99385.72
2022-12-23T19:39:20.693Z,99388.02
2022-12-23T19:41:51.795Z,99387.78
2022-12-23T19:44:22.605Z,99385.30
2022-12-23T19:46:53.621Z,99385.03
2022-12-23T19:49:24.545Z,99385.58
2022-12-23T19:51:55.187Z,99386.81
2022-12-23T19:54:26.025Z,99386.15
2022-12-23T19:56:56.693Z,99378.84
2022-12-23T19:59:27.021Z,99375.77
2022-12-23T20:01:57.760Z,99378.74
2022-12-23T20:04:28.131Z,99379.88
2022-12-23T20:06:58.763Z,99377.58
2022-12-23T20:09:29.403Z,99380.17
2022-12-23T20:12:00.024Z,99377.45
2022-12-23T20:14:34.079Z,99374.68
2022-12-23T20:17:04.813Z,99375.96
2022-12-23T20:19:39.123Z,99378.06
2022-12-23T20:22:14.260Z,99383.73
2022-12-23T20:24:44.548Z,99387.04
2022-12-23T20:27:16.107Z,99390.22
2022-12-23T20:29:47.188Z,99391.38
2022-12-23T20:32:17.467Z,99395.13
2022-12-23T20:34:50.003Z,99393.20
2022-12-23T20:37:27.205Z,99394.08
2022-12-23T20:40:05.079Z,99399.35
2022-12-23T20:42:57.564Z,99401.27
2022-12-23T20:45:28.180Z,99408.56
2022-12-23T20:47:59.392Z,99409.25
2022-12-23T20:50:29.944Z,99407.48
2022-12-23T20:53:00.529Z,99407.03
2022-12-23T20:55:32.412Z,99407.46
2022-12-23T20:58:22.806Z,99404.86
2022-12-23T21:00:53.190Z,99401.15
2022-12-23T21:03:23.563Z,99394.63
2022-12-23T21:05:58.675Z,99392.29
2022-12-23T21:08:29.414Z,99391.77
2022-12-23T21:11:00.107Z,99393.53
2022-12-23T21:13:30.303Z,99394.54
2022-12-23T21:16:05.166Z,99394.90
2022-12-23T21:18:35.607Z,99395.83
2022-12-23T21:21:07.174Z,99400.27
2022-12-23T21:23:41.178Z,99410.86
2022-12-23T21:26:14.595Z,99411.14
2022-12-23T21:28:46.774Z,99415.98
2022-12-23T21:31:19.260Z,99419.20
2022-12-23T21:33:51.635Z,99430.13
2022-12-23T21:36:23.721Z,99432.81
2022-12-23T21:38:54.631Z,99433.48
2022-12-23T21:41:28.354Z,99433.02
2022-12-23T21:44:00.196Z,99445.74
2022-12-23T21:46:31.154Z,99451.52
2022-12-23T21:49:02.279Z,99457.41
2022-12-23T21:51:40.174Z,99456.04
2022-12-23T21:54:12.628Z,99459.46
2022-12-23T21:56:43.537Z,99460.73
2022-12-23T21:59:15.961Z,99463.70
2022-12-23T22:01:46.689Z,99467.34
2022-12-23T22:04:17.384Z,99467.00
2022-12-23T22:06:48.178Z,99463.23
2022-12-23T22:09:20.663Z,99464.31
2022-12-23T22:11:50.936Z,99466.70
2022-12-23T22:14:21.241Z,99476.54
2022-12-23T22:16:51.712Z,99480.80
2022-12-23T22:19:22.111Z,99485.73
2022-12-23T22:21:53.231Z,99486.20
2022-12-23T22:24:23.432Z,99484.95
2022-12-23T22:26:53.970Z,99486.33
2022-12-23T22:29:24.591Z,99487.66
2022-12-23T22:31:54.916Z,99488.84
2022-12-23T22:34:25.801Z,99491.10
2022-12-23T22:36:56.424Z,99504.65
2022-12-23T22:39:26.705Z,99500.68
2022-12-23T22:41:56.941Z,99508.96
2022-12-23T22:44:27.385Z,99515.98
2022-12-23T22:46:57.826Z,99508.88
2022-12-23T22:49:29.009Z,99504.15
2022-12-23T22:51:59.328Z,99509.42
2022-12-23T22:54:30.323Z,99520.00
2022-12-23T22:57:00.683Z,99530.33
2022-12-23T22:59:30.970Z,99532.84
2022-12-23T23:02:01.374Z,99533.05
2022-12-23T23:04:32.316Z,99536.98
2022-12-23T23:07:02.574Z,99547.56
2022-12-23T23:09:33.359Z,99553.95
2022-12-23T23:12:03.603Z,99559.94
2022-12-23T23:14:52.434Z,99566.79
2022-12-23T23:17:24.331Z,99563.56
2022-12-23T23:19:55.095Z,99565.45
2022-12-23T23:22:26.066Z,99569.51
2022-12-23T23:24:56.781Z,99579.04
2022-12-23T23:27:27.093Z,99572.30
2022-12-23T23:29:57.380Z,99570.39
2022-12-23T23:32:27.661Z,99576.08
2022-12-23T23:34:57.871Z,99583.31
2022-12-23T23:37:28.379Z,99581.98
2022-12-23T23:39:58.728Z,99587.25
2022-12-23T23:42:29.379Z,99593.90
2022-12-23T23:44:59.588Z,99586.24
2022-12-23T23:47:34.585Z,99581.86
2022-12-23T23:50:06.207Z,99589.05
2022-12-23T23:52:36.928Z,99600.84
2022-12-23T23:55:08.652Z,99600.63
2022-12-23T23:57:38.989Z,99605.39
